This is the latest recevied weather packets stored in our database for station/object DM4XI-13. If no packets are shown the sender has not sent any weather packets the latest 10 day(s).
| Time | Temp. | Humidity | Pressure | Rain* | Wind** | Luminosity | Snow |
|---|---|---|---|---|---|---|---|
| 1777373628 | 18.33° C | 32% | 1017 hPa | 0 mm | 0.89 m/s, 165° | 624 W/m² | - |
| 1777373568 | 18.89° C | 31% | 1017.1 hPa | 0 mm | 0.89 m/s, 218° | 623 W/m² | - |
| 1777373507 | 18.89° C | 30% | 1017 hPa | 0 mm | 2.68 m/s, 118° | 623 W/m² | - |
| 1777373446 | 18.89° C | 31% | 1017.1 hPa | 0 mm | 1.34 m/s, 188° | 621 W/m² | - |
| 1777373385 | 18.89° C | 32% | 1017 hPa | 0 mm | 0.89 m/s, 114° | 624 W/m² | - |
| 1777373323 | 18.89° C | 31% | 1017 hPa | 0 mm | 1.79 m/s, 153° | 621 W/m² | - |
| 1777373262 | 18.89° C | 31% | 1017 hPa | 0 mm | 1.34 m/s, 151° | 621 W/m² | - |
| 1777373202 | 18.89° C | 32% | 1017 hPa | 0 mm | 0.89 m/s, 153° | 620 W/m² | - |
| 1777373141 | 18.33° C | 32% | 1017 hPa | 0 mm | 0.45 m/s, 129° | 620 W/m² | - |
| 1777373079 | 18.33° C | 33% | 1017 hPa | 0 mm | 1.34 m/s, 159° | 619 W/m² | - |
| 1777373018 | 18.33° C | 32% | 1016.9 hPa | 0 mm | 0.45 m/s, 67° | 619 W/m² | - |
| 1777372958 | 18.33° C | 33% | 1016.8 hPa | 0 mm | 0.89 m/s, 168° | 620 W/m² | - |
| 1777372897 | 18.33° C | 31% | 1017 hPa | 0 mm | 1.34 m/s, 143° | 620 W/m² | - |
| 1777372836 | 18.33° C | 30% | 1017.1 hPa | 0 mm | 3.58 m/s, 165° | 619 W/m² | - |
| 1777372775 | 18.33° C | 32% | 1017 hPa | 0 mm | 0.89 m/s, 95° | 617 W/m² | - |
| 1777372713 | 18.33° C | 34% | 1017 hPa | 0 mm | 0.45 m/s, 168° | 618 W/m² | - |
| 1777372652 | 18.33° C | 31% | 1017 hPa | 0 mm | 2.68 m/s, 184° | 618 W/m² | - |
| 1777372592 | 18.33° C | 31% | 1017 hPa | 0 mm | 1.34 m/s, 153° | 618 W/m² | - |
| 1777372530 | 18.33° C | 30% | 1017.2 hPa | 0 mm | 2.24 m/s, 76° | 617 W/m² | - |
| 1777372470 | 18.33° C | 31% | 1017.1 hPa | 0 mm | 1.34 m/s, 181° | 617 W/m² | - |
| 1777372408 | 18.33° C | 32% | 1017.2 hPa | 0 mm | 0.89 m/s, 186° | 617 W/m² | - |
| 1777372348 | 18.33° C | 31% | 1017.1 hPa | 0 mm | 1.79 m/s, 138° | 618 W/m² | - |
| 1777372287 | 18.33° C | 29% | 1017 hPa | 0 mm | 1.79 m/s, 66° | 619 W/m² | - |
| 1777372225 | 18.33° C | 31% | 1017 hPa | 0 mm | 1.34 m/s, 80° | 620 W/m² | - |
| 1777372165 | 18.33° C | 32% | 1017 hPa | 0 mm | 0.89 m/s, 160° | 620 W/m² | - |
* Rain latest hour (hover to see other rain measurements)
** Current wind speed in m/s (hover to see current wind gust speed)